createdAt,value
2019-03-10T00:02:12.915Z,1.27
2019-03-10T00:04:42.805Z,3.13
2019-03-10T00:07:12.751Z,1.20
2019-03-10T00:09:42.715Z,2.50
2019-03-10T00:12:13.050Z,1.23
2019-03-10T00:14:43.917Z,3.33
2019-03-10T00:17:13.815Z,1.37
2019-03-10T00:19:43.929Z,1.10
2019-03-10T00:22:14.115Z,2.07
2019-03-10T00:24:44.415Z,1.93
2019-03-10T00:27:14.281Z,2.80
2019-03-10T00:29:44.087Z,1.37
2019-03-10T00:32:13.876Z,2.03
2019-03-10T00:34:44.408Z,1.93
2019-03-10T00:37:14.155Z,2.30
2019-03-10T00:40:33.108Z,2.23
2019-03-10T00:43:38.796Z,1.50
2019-03-10T00:46:51.803Z,1.27
2019-03-10T00:50:05.713Z,2.83
2019-03-10T00:52:45.521Z,2.20
2019-03-10T00:55:15.306Z,1.57
2019-03-10T00:57:45.874Z,1.10
2019-03-10T01:00:18.097Z,3.57
2019-03-10T01:02:48.013Z,1.60
2019-03-10T01:05:17.977Z,2.33
2019-03-10T01:07:47.901Z,3.00
2019-03-10T01:10:17.756Z,6.43
2019-03-10T01:12:47.815Z,1.47
2019-03-10T01:15:18.743Z,2.13
2019-03-10T01:17:49.481Z,2.50
2019-03-10T01:20:19.540Z,3.10
2019-03-10T01:22:49.373Z,4.03
2019-03-10T01:25:19.598Z,1.50
2019-03-10T01:27:49.528Z,2.37
2019-03-10T01:30:20.011Z,2.40
2019-03-10T01:33:27.013Z,1.50
2019-03-10T01:35:56.928Z,2.70
2019-03-10T01:38:27.164Z,2.90
2019-03-10T01:40:56.935Z,1.67
2019-03-10T01:43:27.433Z,1.40
2019-03-10T01:45:57.136Z,1.67
2019-03-10T01:48:27.684Z,1.40
2019-03-10T01:50:57.493Z,3.23
2019-03-10T01:53:27.961Z,1.50
2019-03-10T01:55:57.762Z,1.23
2019-03-10T01:58:28.936Z,1.20
2019-03-10T02:00:58.958Z,2.50
2019-03-10T02:03:32.472Z,1.77
2019-03-10T02:06:02.287Z,1.57
2019-03-10T02:08:32.188Z,1.53
2019-03-10T02:11:02.000Z,1.60
2019-03-10T02:13:32.419Z,2.40
2019-03-10T02:16:02.381Z,2.30
2019-03-10T02:18:32.848Z,1.67
2019-03-10T02:21:03.079Z,1.37
2019-03-10T02:23:33.535Z,1.90
2019-03-10T02:26:03.514Z,2.40
2019-03-10T02:28:33.362Z,2.10
2019-03-10T02:31:03.636Z,1.67
2019-03-10T02:33:36.485Z,1.97
2019-03-10T02:36:06.363Z,1.27
2019-03-10T02:38:37.026Z,2.80
2019-03-10T02:41:07.259Z,2.10
2019-03-10T02:43:38.080Z,4.10
2019-03-10T02:46:07.889Z,2.20
2019-03-10T02:48:38.200Z,1.63
2019-03-10T02:51:07.973Z,2.30
2019-03-10T02:53:37.855Z,1.60
2019-03-10T02:56:07.593Z,1.60
2019-03-10T02:58:38.080Z,1.83
2019-03-10T03:01:08.593Z,1.13
2019-03-10T03:03:39.136Z,3.13
2019-03-10T03:06:08.960Z,1.40
2019-03-10T03:08:42.201Z,1.30
2019-03-10T03:11:11.865Z,1.53
2019-03-10T03:13:42.350Z,2.07
2019-03-10T03:16:12.710Z,1.67
2019-03-10T03:18:42.449Z,1.53
2019-03-10T03:21:12.187Z,1.87
2019-03-10T03:23:43.214Z,1.33
2019-03-10T03:26:13.206Z,2.20
2019-03-10T03:28:42.942Z,2.80
2019-03-10T03:31:12.786Z,1.27
2019-03-10T03:33:43.448Z,1.37
2019-03-10T03:36:23.660Z,2.20
2019-03-10T03:39:00.366Z,0.97
2019-03-10T03:41:30.341Z,0.90
2019-03-10T03:44:00.062Z,1.80
2019-03-10T03:46:30.773Z,1.03
2019-03-10T03:49:00.514Z,1.00
2019-03-10T03:51:30.399Z,1.30
2019-03-10T03:54:00.612Z,2.30
2019-03-10T03:56:30.449Z,1.13
2019-03-10T03:59:00.869Z,1.73
2019-03-10T04:01:37.810Z,0.93
2019-03-10T04:04:08.048Z,0.90
2019-03-10T04:06:38.887Z,1.13
2019-03-10T04:09:09.399Z,1.00
2019-03-10T04:11:39.221Z,0.93
2019-03-10T04:14:09.328Z,1.27
2019-03-10T04:16:39.419Z,3.93
2019-03-10T04:19:09.276Z,1.10
2019-03-10T04:21:39.226Z,2.80
2019-03-10T04:24:10.111Z,1.30
2019-03-10T04:26:39.819Z,0.83
2019-03-10T04:29:09.703Z,2.60
2019-03-10T04:31:39.464Z,2.73
2019-03-10T04:34:09.259Z,1.60
2019-03-10T04:36:39.020Z,1.00
2019-03-10T04:39:08.973Z,0.80
2019-03-10T04:41:39.131Z,2.60
2019-03-10T04:44:09.906Z,1.30
2019-03-10T04:46:39.741Z,1.20
2019-03-10T04:49:10.031Z,1.27
2019-03-10T04:51:39.866Z,2.20
2019-03-10T04:54:09.731Z,3.47
2019-03-10T04:56:46.472Z,3.10
2019-03-10T04:59:16.209Z,5.07
2019-03-10T05:01:46.031Z,2.37
2019-03-10T05:04:15.987Z,3.60
2019-03-10T05:06:46.030Z,2.77
2019-03-10T05:09:15.785Z,7.60
2019-03-10T05:11:45.959Z,3.37
2019-03-10T05:14:16.620Z,2.00
2019-03-10T05:16:47.501Z,2.43
2019-03-10T05:19:17.274Z,1.83
2019-03-10T05:21:47.090Z,3.57
2019-03-10T05:24:17.591Z,3.50
2019-03-10T05:26:47.354Z,3.83
2019-03-10T05:29:17.283Z,3.63
2019-03-10T05:31:47.128Z,2.80
2019-03-10T05:34:17.227Z,4.57
2019-03-10T05:36:47.005Z,4.30
2019-03-10T05:39:16.914Z,4.30
2019-03-10T05:41:46.740Z,6.23
2019-03-10T05:44:16.558Z,3.63
2019-03-10T05:46:46.349Z,3.33
2019-03-10T05:49:16.630Z,4.40
2019-03-10T05:51:46.852Z,3.37
2019-03-10T05:54:16.831Z,4.47
2019-03-10T05:56:46.718Z,2.67
2019-03-10T05:59:16.640Z,3.43
2019-03-10T06:01:47.157Z,3.80
2019-03-10T06:04:17.550Z,2.03
2019-03-10T06:06:47.649Z,1.90
2019-03-10T06:09:18.104Z,4.03
2019-03-10T06:11:48.208Z,4.70
2019-03-10T06:14:18.402Z,4.03
2019-03-10T06:16:48.165Z,3.70
2019-03-10T06:19:18.077Z,3.70
2019-03-10T06:21:47.839Z,2.03
2019-03-10T06:24:17.696Z,4.50
2019-03-10T06:26:47.512Z,3.00
2019-03-10T06:29:17.374Z,3.60
2019-03-10T06:31:47.286Z,7.03
2019-03-10T06:34:18.066Z,4.10
2019-03-10T06:36:47.825Z,4.00
2019-03-10T06:39:17.783Z,2.47
2019-03-10T06:41:47.710Z,2.00
2019-03-10T06:44:17.451Z,1.87
2019-03-10T06:46:47.126Z,1.43
2019-03-10T06:49:17.244Z,1.40
2019-03-10T06:51:47.115Z,1.90
2019-03-10T06:54:17.625Z,2.50
2019-03-10T06:56:47.532Z,1.43
2019-03-10T06:59:17.206Z,2.03
2019-03-10T07:01:47.083Z,1.60
2019-03-10T07:04:17.253Z,1.67
2019-03-10T07:06:47.304Z,2.80
2019-03-10T07:09:17.130Z,1.70
2019-03-10T07:11:46.944Z,2.53
2019-03-10T07:14:16.915Z,1.33
2019-03-10T07:16:46.689Z,3.00
2019-03-10T07:19:16.465Z,3.00
2019-03-10T07:21:46.301Z,3.23
2019-03-10T07:24:16.259Z,1.23
2019-03-10T07:26:46.272Z,3.63
2019-03-10T07:29:28.039Z,2.20
2019-03-10T07:32:18.695Z,6.97
2019-03-10T07:35:00.485Z,3.80
2019-03-10T07:38:07.329Z,1.63
2019-03-10T07:40:44.697Z,1.20
2019-03-10T07:43:37.074Z,1.57
2019-03-10T07:46:31.526Z,2.53
2019-03-10T07:49:11.005Z,3.33
2019-03-10T07:51:49.439Z,1.77
2019-03-10T07:54:44.980Z,1.40
2019-03-10T07:57:48.561Z,1.50
2019-03-10T08:00:37.401Z,1.67
2019-03-10T08:03:34.331Z,3.17
2019-03-10T08:06:27.049Z,0.80
2019-03-10T08:09:14.755Z,1.80
2019-03-10T08:12:09.186Z,1.07
2019-03-10T08:15:04.266Z,1.50
2019-03-10T08:17:48.124Z,1.27
2019-03-10T08:20:23.816Z,1.00
2019-03-10T08:23:03.651Z,1.00
2019-03-10T08:25:52.481Z,1.40
2019-03-10T08:28:51.202Z,0.90
2019-03-10T08:31:47.028Z,0.87
2019-03-10T08:34:34.853Z,2.10
2019-03-10T08:37:13.264Z,0.90
2019-03-10T08:40:00.534Z,2.63
2019-03-10T08:42:37.687Z,0.77
2019-03-10T08:45:33.004Z,1.03
2019-03-10T08:48:20.414Z,1.20
2019-03-10T08:50:57.700Z,2.70
2019-03-10T08:53:48.929Z,1.00
2019-03-10T08:56:32.406Z,1.70
2019-03-10T08:59:21.195Z,1.47
2019-03-10T09:01:58.572Z,1.30
2019-03-10T09:04:50.153Z,2.60
2019-03-10T09:07:48.936Z,1.33
2019-03-10T09:10:26.740Z,2.87
2019-03-10T09:13:13.735Z,1.47
2019-03-10T09:15:50.717Z,1.10
2019-03-10T09:18:45.197Z,1.83
2019-03-10T09:21:33.876Z,2.23
2019-03-10T09:24:38.551Z,2.93
2019-03-10T09:27:22.740Z,2.70
2019-03-10T09:30:24.931Z,1.13
2019-03-10T09:33:12.407Z,1.20
2019-03-10T09:36:17.900Z,1.70
2019-03-10T09:38:57.785Z,2.07
2019-03-10T09:41:46.750Z,3.97
2019-03-10T09:44:41.852Z,1.20
2019-03-10T09:47:35.208Z,1.63
2019-03-10T09:50:27.652Z,1.63
2019-03-10T09:53:13.286Z,1.20
2019-03-10T09:56:05.205Z,1.20
2019-03-10T09:58:54.719Z,1.43
2019-03-10T10:01:41.733Z,2.43
2019-03-10T10:04:33.579Z,2.07
2019-03-10T10:07:20.644Z,2.93
2019-03-10T10:10:09.453Z,3.20
2019-03-10T10:13:07.654Z,2.50
2019-03-10T10:15:52.066Z,1.43
2019-03-10T10:18:30.152Z,4.23
2019-03-10T10:21:17.418Z,1.73
2019-03-10T10:24:01.673Z,3.20
2019-03-10T10:26:53.069Z,1.27
2019-03-10T10:29:36.406Z,2.50
2019-03-10T10:32:17.523Z,2.50
2019-03-10T10:35:13.239Z,3.00
2019-03-10T10:38:03.418Z,1.20
2019-03-10T10:41:03.379Z,1.87
2019-03-10T10:43:51.406Z,6.33
2019-03-10T10:46:40.275Z,4.23
2019-03-10T10:49:12.379Z,2.50
2019-03-10T10:52:07.328Z,1.97
2019-03-10T10:54:56.774Z,3.83
2019-03-10T10:57:32.972Z,1.83
2019-03-10T11:00:37.493Z,3.17
2019-03-10T11:03:26.941Z,1.27
2019-03-10T11:06:14.129Z,2.30
2019-03-10T11:09:11.142Z,1.50
2019-03-10T11:12:05.440Z,3.10
2019-03-10T11:14:52.084Z,3.53
2019-03-10T11:17:37.060Z,2.50
2019-03-10T11:20:23.206Z,3.10
2019-03-10T11:23:15.380Z,2.47
2019-03-10T11:26:04.249Z,3.50
2019-03-10T11:29:03.938Z,2.20
2019-03-10T11:31:46.408Z,2.00
2019-03-10T11:34:35.353Z,2.60
2019-03-10T11:37:14.898Z,2.13
2019-03-10T11:40:03.765Z,3.43
2019-03-10T11:42:50.905Z,2.87
2019-03-10T11:45:39.161Z,2.57
2019-03-10T11:48:38.914Z,2.70
2019-03-10T11:51:30.736Z,2.93
2019-03-10T11:54:23.851Z,5.13
2019-03-10T11:57:05.499Z,4.20
2019-03-10T11:59:41.076Z,3.33
2019-03-10T12:02:30.897Z,2.73
2019-03-10T12:05:19.609Z,3.17
2019-03-10T12:08:05.125Z,3.60
2019-03-10T12:10:35.562Z,2.30
2019-03-10T12:13:06.661Z,1.57
2019-03-10T12:15:36.890Z,5.30
2019-03-10T12:18:08.128Z,5.20
2019-03-10T12:20:37.926Z,3.93
2019-03-10T12:23:09.299Z,4.10
2019-03-10T12:25:39.104Z,5.40
2019-03-10T12:28:10.263Z,2.47
2019-03-10T12:30:40.051Z,1.60
2019-03-10T12:33:10.841Z,1.43
2019-03-10T12:35:41.901Z,1.20
2019-03-10T12:38:12.470Z,1.20
2019-03-10T12:40:43.058Z,1.33
2019-03-10T12:43:13.716Z,1.80
2019-03-10T12:45:43.607Z,1.70
2019-03-10T12:48:14.239Z,1.80
2019-03-10T12:50:43.977Z,3.63
2019-03-10T12:53:14.533Z,4.57
2019-03-10T12:55:44.642Z,1.70
2019-03-10T12:58:15.163Z,1.70
2019-03-10T13:00:45.047Z,3.07
2019-03-10T13:03:18.182Z,3.90
2019-03-10T13:05:48.021Z,0.93
2019-03-10T13:08:17.817Z,3.47
2019-03-10T13:10:48.491Z,1.30
2019-03-10T13:13:19.117Z,2.50
2019-03-10T13:15:49.096Z,1.30
2019-03-10T13:18:19.610Z,1.13
2019-03-10T13:20:49.422Z,1.57
2019-03-10T13:23:19.950Z,1.40
2019-03-10T13:25:49.921Z,1.20
2019-03-10T13:28:20.458Z,1.77
2019-03-10T13:30:50.187Z,2.60
2019-03-10T13:33:20.867Z,2.77
2019-03-10T13:35:50.655Z,1.30
2019-03-10T13:38:20.499Z,1.40
2019-03-10T13:40:50.268Z,3.57
2019-03-10T13:43:20.977Z,1.83
2019-03-10T13:45:51.056Z,4.07
2019-03-10T13:48:21.416Z,2.93
2019-03-10T13:50:51.263Z,1.00
2019-03-10T13:53:21.826Z,5.13
2019-03-10T13:55:51.876Z,4.80
2019-03-10T13:58:22.410Z,1.50
2019-03-10T14:00:52.140Z,1.90
2019-03-10T14:03:22.774Z,5.83
2019-03-10T14:05:52.771Z,3.90
2019-03-10T14:08:23.266Z,3.23
2019-03-10T14:10:53.097Z,4.03
2019-03-10T14:13:23.550Z,1.47
2019-03-10T14:15:53.513Z,6.93
2019-03-10T14:18:24.087Z,1.93
2019-03-10T14:20:54.162Z,4.50
2019-03-10T14:23:23.828Z,1.20
2019-03-10T14:25:53.721Z,0.93
2019-03-10T14:28:24.237Z,0.83
2019-03-10T14:30:54.435Z,3.00
2019-03-10T14:33:24.689Z,1.37
2019-03-10T14:35:54.651Z,2.63
2019-03-10T14:38:25.730Z,1.10
2019-03-10T14:40:55.553Z,1.93
2019-03-10T14:43:26.088Z,1.90
2019-03-10T14:45:56.024Z,1.50
2019-03-10T14:48:26.599Z,2.10
2019-03-10T14:50:56.492Z,1.63
2019-03-10T14:53:26.344Z,0.93
2019-03-10T14:55:57.139Z,1.07
2019-03-10T14:58:27.603Z,2.40
2019-03-10T15:00:57.677Z,2.23
2019-03-10T15:03:28.140Z,6.20
2019-03-10T15:05:57.990Z,1.67
2019-03-10T15:08:28.188Z,1.03
2019-03-10T15:10:58.001Z,2.60
2019-03-10T15:13:28.728Z,2.07
2019-03-10T15:15:59.039Z,2.83
2019-03-10T15:18:29.432Z,2.63
2019-03-10T15:20:59.495Z,2.07
2019-03-10T15:23:30.551Z,1.43
2019-03-10T15:26:00.721Z,1.57
2019-03-10T15:28:31.253Z,1.53
2019-03-10T15:31:01.251Z,1.97
2019-03-10T15:33:30.907Z,3.00
2019-03-10T15:36:00.691Z,1.53
2019-03-10T15:38:31.120Z,3.13
2019-03-10T15:41:00.924Z,2.80
2019-03-10T15:43:31.450Z,2.67
2019-03-10T15:46:01.187Z,0.80
2019-03-10T15:48:31.729Z,2.83
2019-03-10T15:51:01.545Z,1.33
2019-03-10T15:53:31.727Z,1.17
2019-03-10T15:56:01.819Z,2.00
2019-03-10T15:58:32.471Z,3.83
2019-03-10T16:01:04.079Z,2.03
2019-03-10T16:03:34.550Z,1.50
2019-03-10T16:06:04.318Z,3.90
2019-03-10T16:08:34.928Z,2.23
2019-03-10T16:11:04.701Z,5.13
2019-03-10T16:13:34.624Z,6.03
2019-03-10T16:16:04.730Z,1.40
2019-03-10T16:18:38.240Z,2.80
2019-03-10T16:21:08.036Z,3.60
2019-03-10T16:23:38.575Z,3.80
2019-03-10T16:26:08.433Z,2.83
2019-03-10T16:28:39.020Z,5.03
2019-03-10T16:31:08.840Z,1.73
2019-03-10T16:33:39.538Z,4.60
2019-03-10T16:36:10.134Z,4.90
2019-03-10T16:38:40.471Z,3.20
2019-03-10T16:41:10.257Z,7.33
2019-03-10T16:43:40.362Z,4.57
2019-03-10T16:46:10.208Z,1.80
2019-03-10T16:48:41.828Z,3.63
2019-03-10T16:51:11.576Z,4.90
2019-03-10T16:53:41.992Z,8.53
2019-03-10T16:56:11.821Z,13.63
2019-03-10T16:58:41.730Z,5.83
2019-03-10T17:01:11.715Z,2.50
2019-03-10T17:03:42.328Z,2.97
2019-03-10T17:06:12.234Z,2.13
2019-03-10T17:08:41.972Z,3.33
2019-03-10T17:11:12.633Z,3.00
2019-03-10T17:13:43.223Z,7.03
2019-03-10T17:16:13.072Z,5.30
2019-03-10T17:18:42.800Z,3.53
2019-03-10T17:21:12.682Z,5.83
2019-03-10T17:23:42.807Z,4.10
2019-03-10T17:26:12.844Z,6.63
2019-03-10T17:28:42.571Z,4.23
2019-03-10T17:31:12.297Z,4.80
2019-03-10T17:33:42.076Z,3.60
2019-03-10T17:36:15.976Z,7.50
2019-03-10T17:38:45.743Z,7.00
2019-03-10T17:41:15.516Z,2.57
2019-03-10T17:43:45.875Z,3.30
2019-03-10T17:46:15.558Z,6.57
2019-03-10T17:48:45.395Z,6.83
2019-03-10T17:51:15.094Z,4.37
2019-03-10T17:53:44.886Z,3.97
2019-03-10T17:56:14.701Z,6.33
2019-03-10T17:58:44.667Z,3.97
2019-03-10T18:01:14.385Z,8.37
2019-03-10T18:03:44.121Z,6.37
2019-03-10T18:06:13.840Z,4.07
2019-03-10T18:08:43.633Z,4.00
2019-03-10T18:11:13.364Z,6.23
2019-03-10T18:16:38.089Z,3.90
2019-03-10T18:19:07.825Z,5.07
2019-03-10T18:21:37.518Z,5.47
2019-03-10T18:24:07.697Z,5.53
2019-03-10T18:26:37.312Z,7.53
2019-03-10T18:29:07.138Z,8.40
2019-03-10T18:31:36.871Z,6.00
2019-03-10T18:34:08.909Z,4.90
2019-03-10T18:36:38.711Z,6.40
2019-03-10T18:39:08.639Z,3.90
2019-03-10T18:41:38.313Z,6.33
2019-03-10T18:44:08.881Z,3.07
2019-03-10T18:46:38.626Z,12.40
2019-03-10T18:49:08.200Z,7.80
2019-03-10T18:51:37.866Z,5.17
2019-03-10T18:54:08.804Z,6.80
2019-03-10T18:56:39.583Z,7.70
2019-03-10T18:59:09.145Z,5.57
2019-03-10T19:01:38.821Z,7.33
2019-03-10T19:04:09.024Z,5.33
2019-03-10T19:06:38.684Z,6.20
2019-03-10T19:09:08.806Z,8.40
2019-03-10T19:11:39.538Z,9.40
2019-03-10T19:14:09.535Z,11.23
2019-03-10T19:16:39.496Z,11.20
2019-03-10T19:19:09.567Z,9.27
2019-03-10T19:21:39.506Z,11.03
2019-03-10T19:24:10.397Z,14.70
2019-03-10T19:26:40.480Z,7.40
2019-03-10T19:29:10.459Z,5.03
2019-03-10T19:31:41.408Z,10.63
2019-03-10T19:34:11.385Z,6.23
2019-03-10T19:36:40.991Z,6.37
2019-03-10T19:39:10.570Z,8.57
2019-03-10T19:41:41.231Z,11.93
2019-03-10T19:44:10.948Z,6.47
2019-03-10T19:46:40.555Z,11.00
2019-03-10T19:49:10.376Z,9.60
2019-03-10T19:51:39.960Z,12.80
2019-03-10T19:54:09.579Z,8.90
2019-03-10T19:56:39.163Z,6.63
2019-03-10T19:59:09.135Z,8.63
2019-03-10T20:01:38.687Z,12.60
2019-03-10T20:04:08.493Z,18.77
2019-03-10T20:06:38.347Z,8.40
2019-03-10T20:09:08.246Z,8.00
2019-03-10T20:11:38.324Z,10.40
2019-03-10T20:14:09.007Z,7.60
2019-03-10T20:16:38.682Z,11.17
2019-03-10T20:19:08.511Z,11.67
2019-03-10T20:21:38.070Z,7.10
2019-03-10T20:24:07.743Z,17.40
2019-03-10T20:26:37.256Z,8.80
2019-03-10T20:29:06.922Z,9.20
2019-03-10T20:31:36.550Z,8.30
2019-03-10T20:34:06.219Z,6.10
2019-03-10T20:36:35.733Z,8.10
2019-03-10T20:39:07.590Z,8.30
2019-03-10T20:41:37.115Z,9.53
2019-03-10T20:44:09.441Z,12.20
2019-03-10T20:46:38.968Z,8.30
2019-03-10T20:49:08.964Z,10.00
2019-03-10T20:51:38.508Z,11.00
2019-03-10T20:54:12.171Z,12.40
2019-03-10T20:56:41.727Z,9.23
2019-03-10T20:59:11.889Z,16.40
2019-03-10T21:01:42.454Z,16.00
2019-03-10T21:04:12.136Z,11.17
2019-03-10T21:06:42.713Z,7.40
2019-03-10T21:09:13.365Z,13.37
2019-03-10T21:11:44.995Z,15.73
2019-03-10T21:14:14.935Z,9.23
2019-03-10T21:16:44.740Z,11.07
2019-03-10T21:19:14.733Z,8.07
2019-03-10T21:21:44.404Z,10.43
2019-03-10T21:24:13.943Z,11.27
2019-03-10T21:26:43.667Z,6.20
2019-03-10T21:29:13.229Z,9.90
2019-03-10T21:31:43.339Z,9.73
2019-03-10T21:34:12.939Z,8.70
2019-03-10T21:36:43.300Z,6.20
2019-03-10T21:39:12.824Z,7.73
2019-03-10T21:41:42.715Z,4.23
2019-03-10T21:44:12.591Z,3.97
2019-03-10T21:46:42.595Z,4.57
2019-03-10T21:49:12.128Z,4.57
2019-03-10T21:51:41.864Z,3.77
2019-03-10T21:54:11.398Z,8.57
2019-03-10T21:56:41.052Z,11.17
2019-03-10T21:59:11.200Z,14.17
2019-03-10T22:01:40.814Z,8.20
2019-03-10T22:04:10.427Z,8.37
2019-03-10T22:06:40.408Z,9.97
2019-03-10T22:09:10.280Z,8.77
2019-03-10T22:11:40.177Z,9.40
2019-03-10T22:14:11.291Z,10.10
2019-03-10T22:16:41.143Z,14.37
2019-03-10T22:19:21.891Z,10.63
2019-03-10T22:21:42.340Z,9.23
2019-03-10T22:24:12.247Z,9.17
2019-03-10T22:26:41.860Z,10.40
2019-03-10T22:29:11.424Z,8.00
2019-03-10T22:31:41.080Z,7.03
2019-03-10T22:34:10.695Z,7.27
2019-03-10T22:36:40.350Z,10.93
2019-03-10T22:39:09.911Z,10.47
2019-03-10T22:41:39.648Z,7.37
2019-03-10T22:44:09.194Z,6.60
2019-03-10T22:46:38.875Z,10.20
2019-03-10T22:49:08.443Z,8.97
2019-03-10T22:51:38.615Z,8.10
2019-03-10T22:54:08.119Z,7.03
2019-03-10T22:56:37.750Z,8.03
2019-03-10T22:59:07.257Z,8.60
2019-03-10T23:01:36.915Z,7.70
2019-03-10T23:04:06.424Z,13.17
2019-03-10T23:06:36.155Z,10.93
2019-03-10T23:09:08.254Z,12.60
2019-03-10T23:11:38.900Z,9.87
2019-03-10T23:14:08.427Z,14.80
2019-03-10T23:16:38.172Z,20.17
2019-03-10T23:19:07.714Z,7.90
2019-03-10T23:21:37.385Z,13.17
2019-03-10T23:24:06.959Z,10.43
2019-03-10T23:26:36.918Z,11.93
2019-03-10T23:29:06.578Z,10.17
2019-03-10T23:31:36.186Z,14.90
2019-03-10T23:34:06.039Z,7.30
2019-03-10T23:36:35.707Z,8.80
2019-03-10T23:39:06.463Z,7.03
2019-03-10T23:41:36.165Z,9.37
2019-03-10T23:44:05.656Z,9.33
2019-03-10T23:46:35.166Z,6.17
2019-03-10T23:49:05.127Z,11.47
2019-03-10T23:51:34.803Z,10.00
2019-03-10T23:54:04.502Z,4.90
2019-03-10T23:56:34.090Z,5.70
2019-03-10T23:59:03.694Z,9.30
